createdAt,value
2022-08-02T00:01:32.370Z,17.90
2022-08-02T00:04:00.848Z,17.90
2022-08-02T00:06:32.466Z,17.90
2022-08-02T00:09:01.881Z,18.00
2022-08-02T00:11:34.490Z,17.90
2022-08-02T00:14:08.712Z,17.90
2022-08-02T00:16:41.676Z,18.00
2022-08-02T00:19:10.603Z,17.90
2022-08-02T00:21:41.580Z,17.80
2022-08-02T00:24:29.538Z,17.80
2022-08-02T00:27:03.772Z,17.80
2022-08-02T00:29:42.691Z,17.80
2022-08-02T00:32:23.131Z,17.70
2022-08-02T00:34:53.144Z,17.60
2022-08-02T00:37:24.218Z,17.40
2022-08-02T00:39:54.761Z,17.30
2022-08-02T00:42:33.952Z,17.30
2022-08-02T00:45:08.857Z,17.40
2022-08-02T00:47:37.969Z,17.30
2022-08-02T00:50:08.269Z,17.40
2022-08-02T00:52:39.746Z,17.40
2022-08-02T00:55:11.079Z,17.40
2022-08-02T00:57:40.009Z,17.40
2022-08-02T01:00:20.213Z,17.40
2022-08-02T01:02:51.273Z,17.40
2022-08-02T01:05:22.721Z,17.40
2022-08-02T01:07:53.586Z,17.30
2022-08-02T01:13:06.031Z,17.30
2022-08-02T01:15:46.227Z,17.30
2022-08-02T01:18:24.680Z,17.30
2022-08-02T01:21:33.323Z,17.30
2022-08-02T01:24:34.235Z,17.40
2022-08-02T01:27:23.194Z,17.40
2022-08-02T01:30:01.623Z,17.40
2022-08-02T01:32:36.742Z,17.40
2022-08-02T01:35:14.920Z,17.40
2022-08-02T01:37:53.486Z,17.30
2022-08-02T01:40:31.397Z,17.30
2022-08-02T01:43:04.777Z,17.30
2022-08-02T01:45:38.712Z,17.20
2022-08-02T01:48:14.450Z,17.20
2022-08-02T01:50:46.167Z,17.20
2022-08-02T01:53:19.783Z,17.20
2022-08-02T01:55:58.266Z,17.10
2022-08-02T01:58:37.918Z,17.10
2022-08-02T02:01:15.175Z,17.10
2022-08-02T02:03:49.564Z,17.00
2022-08-02T02:06:22.452Z,17.00
2022-08-02T02:08:53.071Z,17.00
2022-08-02T02:12:05.181Z,17.00
2022-08-02T02:14:29.750Z,16.90
2022-08-02T02:17:06.217Z,17.00
2022-08-02T02:19:43.003Z,17.00
2022-08-02T02:22:14.077Z,17.10
2022-08-02T02:24:45.490Z,17.10
2022-08-02T02:27:24.995Z,17.10
2022-08-02T02:29:55.704Z,17.20
2022-08-02T02:32:34.388Z,17.10
2022-08-02T02:35:06.154Z,17.00
2022-08-02T02:37:41.564Z,17.00
2022-08-02T02:40:11.569Z,16.90
2022-08-02T02:42:41.232Z,16.80
2022-08-02T02:45:12.547Z,16.90
2022-08-02T02:47:43.020Z,16.80
2022-08-02T02:50:13.322Z,16.80
2022-08-02T02:52:42.905Z,16.80
2022-08-02T02:55:12.561Z,16.70
2022-08-02T02:57:43.589Z,16.70
2022-08-02T03:00:17.561Z,16.60
2022-08-02T03:03:01.404Z,16.70
2022-08-02T03:05:31.801Z,16.60
2022-08-02T03:08:03.915Z,16.70
2022-08-02T03:10:37.667Z,16.70
2022-08-02T03:13:15.993Z,16.70
2022-08-02T03:15:44.679Z,16.70
2022-08-02T03:18:34.567Z,16.70
2022-08-02T03:21:06.374Z,16.80
2022-08-02T03:23:38.676Z,16.80
2022-08-02T03:26:08.261Z,16.80
2022-08-02T03:28:47.778Z,16.90
2022-08-02T03:31:17.658Z,16.80
2022-08-02T03:33:52.103Z,16.80
2022-08-02T03:36:23.903Z,16.80
2022-08-02T03:41:38.303Z,16.80
2022-08-02T03:44:09.215Z,16.80
2022-08-02T03:46:39.642Z,16.80
2022-08-02T03:49:11.040Z,16.80
2022-08-02T03:51:41.633Z,16.80
2022-08-02T03:54:15.612Z,16.70
2022-08-02T03:56:46.393Z,16.70
2022-08-02T03:59:20.250Z,16.70
2022-08-02T04:01:51.399Z,16.70
2022-08-02T04:04:23.222Z,16.60
2022-08-02T04:06:51.422Z,16.50
2022-08-02T04:09:21.129Z,16.50
2022-08-02T04:11:49.784Z,16.50
2022-08-02T04:14:17.997Z,16.50
2022-08-02T04:16:53.070Z,16.40
2022-08-02T04:19:33.167Z,16.50
2022-08-02T04:22:04.907Z,16.60
2022-08-02T04:24:41.715Z,16.50
2022-08-02T04:27:49.035Z,16.50
2022-08-02T04:30:06.278Z,16.50
2022-08-02T04:32:36.852Z,16.50
2022-08-02T04:35:20.861Z,16.60
2022-08-02T04:38:08.864Z,16.60
2022-08-02T04:40:40.691Z,16.60
2022-08-02T04:43:20.729Z,16.70
2022-08-02T04:45:51.153Z,16.70
2022-08-02T04:48:19.957Z,16.80
2022-08-02T04:51:06.073Z,16.80
2022-08-02T04:53:36.941Z,16.90
2022-08-02T04:56:05.449Z,17.10
2022-08-02T04:58:40.452Z,17.20
2022-08-02T05:01:11.515Z,17.30
2022-08-02T05:03:43.133Z,17.40
2022-08-02T05:06:19.974Z,17.50
2022-08-02T05:08:53.763Z,17.70
2022-08-02T05:11:34.595Z,17.80
2022-08-02T05:14:07.617Z,17.80
2022-08-02T05:16:38.029Z,17.80
2022-08-02T05:19:08.816Z,17.80
2022-08-02T05:21:48.473Z,17.80
2022-08-02T05:24:25.416Z,17.90
2022-08-02T05:26:56.022Z,17.90
2022-08-02T05:29:28.302Z,17.90
2022-08-02T05:31:58.782Z,18.00
2022-08-02T05:34:34.262Z,18.00
2022-08-02T05:37:22.515Z,18.10
2022-08-02T05:39:55.729Z,18.20
2022-08-02T05:42:28.448Z,18.20
2022-08-02T05:45:00.675Z,18.30
2022-08-02T05:47:31.230Z,18.30
2022-08-02T05:49:59.903Z,18.30
2022-08-02T05:52:43.336Z,18.30
2022-08-02T05:55:18.215Z,18.40
2022-08-02T05:57:58.061Z,18.50
2022-08-02T06:00:32.671Z,18.60
2022-08-02T06:03:24.643Z,18.70
2022-08-02T06:06:03.496Z,18.80
2022-08-02T06:08:48.427Z,18.90
2022-08-02T06:11:22.341Z,19.10
2022-08-02T06:13:50.761Z,19.20
2022-08-02T06:16:31.838Z,19.30
2022-08-02T06:19:05.660Z,19.40
2022-08-02T06:22:33.203Z,19.50
2022-08-02T06:24:29.838Z,19.50
2022-08-02T06:27:11.647Z,19.50
2022-08-02T06:29:42.640Z,19.60
2022-08-02T06:32:14.031Z,19.60
2022-08-02T06:34:54.006Z,19.70
2022-08-02T06:37:31.292Z,19.70
2022-08-02T06:40:09.058Z,19.90
2022-08-02T06:42:53.464Z,20.00
2022-08-02T06:45:21.980Z,20.00
2022-08-02T06:47:52.664Z,20.00
2022-08-02T06:50:35.810Z,20.20
2022-08-02T06:53:05.852Z,20.30
2022-08-02T06:55:44.136Z,20.50
2022-08-02T06:58:15.813Z,20.70
2022-08-02T07:00:55.027Z,20.70
2022-08-02T07:03:34.557Z,20.70
2022-08-02T07:06:11.895Z,20.90
2022-08-02T07:08:41.872Z,20.80
2022-08-02T07:11:33.808Z,20.90
2022-08-02T07:14:12.285Z,21.10
2022-08-02T07:16:41.625Z,21.30
2022-08-02T07:19:34.964Z,21.40
2022-08-02T07:22:15.309Z,21.60
2022-08-02T07:24:56.883Z,21.70
2022-08-02T07:30:18.820Z,22.10
2022-08-02T07:32:54.444Z,22.30
2022-08-02T07:35:26.346Z,22.40
2022-08-02T07:38:02.235Z,22.40
2022-08-02T07:40:30.769Z,22.50
2022-08-02T07:43:03.760Z,22.60
2022-08-02T07:45:32.862Z,22.60
2022-08-02T07:48:04.422Z,22.80
2022-08-02T07:50:32.644Z,22.90
2022-08-02T07:53:02.587Z,23.00
2022-08-02T07:55:39.012Z,23.10
2022-08-02T07:58:11.500Z,23.20
2022-08-02T08:00:41.177Z,23.30
2022-08-02T08:03:09.468Z,23.30
2022-08-02T08:05:37.825Z,23.40
2022-08-02T08:08:07.029Z,23.40
2022-08-02T08:10:35.371Z,23.30
2022-08-02T08:13:03.538Z,23.30
2022-08-02T08:15:33.163Z,23.70
2022-08-02T08:18:02.730Z,24.00
2022-08-02T08:20:30.924Z,24.20
2022-08-02T08:23:02.498Z,24.60
2022-08-02T08:25:32.073Z,24.70
2022-08-02T08:28:10.425Z,24.80
2022-08-02T08:30:44.362Z,24.80
2022-08-02T08:33:13.507Z,24.90
2022-08-02T08:35:41.783Z,25.20
2022-08-02T08:38:10.432Z,25.30
2022-08-02T08:40:38.826Z,25.30
2022-08-02T08:43:07.200Z,25.40
2022-08-02T08:45:35.556Z,25.80
2022-08-02T08:48:12.743Z,25.80
2022-08-02T08:50:46.125Z,25.70
2022-08-02T08:53:16.274Z,25.60
2022-08-02T08:55:49.838Z,25.60
2022-08-02T08:58:18.271Z,25.80
2022-08-02T09:00:56.147Z,25.80
2022-08-02T09:03:27.188Z,25.90
2022-08-02T09:06:21.684Z,25.80
2022-08-02T09:08:53.502Z,25.90
2022-08-02T09:11:30.328Z,26.20
2022-08-02T09:14:02.643Z,26.20
2022-08-02T09:16:36.688Z,26.40
2022-08-02T09:19:25.250Z,26.50
2022-08-02T09:22:05.386Z,26.50
2022-08-02T09:24:43.545Z,26.50
2022-08-02T09:27:13.597Z,26.60
2022-08-02T09:30:06.090Z,26.50
2022-08-02T09:32:45.515Z,26.60
2022-08-02T09:35:15.522Z,27.00
2022-08-02T09:37:47.002Z,27.10
2022-08-02T09:40:17.030Z,27.00
2022-08-02T09:42:59.954Z,26.70
2022-08-02T09:45:34.244Z,26.80
2022-08-02T09:48:03.894Z,26.70
2022-08-02T09:50:37.061Z,26.80
2022-08-02T09:53:07.778Z,26.80
2022-08-02T09:55:38.427Z,27.00
2022-08-02T09:58:22.784Z,27.00
2022-08-02T10:00:59.120Z,27.10
2022-08-02T10:03:34.823Z,27.10
2022-08-02T10:06:06.577Z,26.80
2022-08-02T10:08:40.781Z,26.90
2022-08-02T10:11:09.107Z,27.00
2022-08-02T10:13:37.517Z,27.00
2022-08-02T10:16:07.174Z,26.80
2022-08-02T10:18:39.520Z,26.80
2022-08-02T10:21:15.647Z,27.00
2022-08-02T10:23:46.611Z,27.10
2022-08-02T10:26:18.083Z,27.10
2022-08-02T10:28:49.528Z,27.30
2022-08-02T10:31:22.455Z,27.20
2022-08-02T10:33:54.005Z,27.00
2022-08-02T10:36:27.196Z,27.00
2022-08-02T10:38:58.655Z,27.10
2022-08-02T10:41:43.992Z,27.30
2022-08-02T10:44:24.967Z,27.20
2022-08-02T10:46:54.158Z,27.00
2022-08-02T10:49:40.396Z,27.10
2022-08-02T10:52:16.292Z,26.90
2022-08-02T10:54:49.008Z,27.00
2022-08-02T10:57:22.942Z,27.20
2022-08-02T10:59:53.647Z,27.50
2022-08-02T11:02:45.694Z,27.70
2022-08-02T11:05:22.496Z,27.80
2022-08-02T11:08:02.200Z,27.60
2022-08-02T11:10:43.087Z,27.70
2022-08-02T11:13:19.442Z,27.80
2022-08-02T11:15:59.890Z,27.70
2022-08-02T11:19:02.559Z,27.80
2022-08-02T11:21:37.088Z,28.00
2022-08-02T11:24:30.035Z,27.80
2022-08-02T11:26:59.312Z,28.00
2022-08-02T11:29:39.162Z,28.10
2022-08-02T11:32:09.014Z,28.30
2022-08-02T11:34:38.414Z,28.40
2022-08-02T11:37:07.667Z,28.40
2022-08-02T11:39:37.305Z,28.30
2022-08-02T11:42:05.891Z,28.60
2022-08-02T11:44:42.262Z,28.60
2022-08-02T11:47:10.576Z,28.40
2022-08-02T11:49:39.443Z,28.50
2022-08-02T11:52:11.084Z,28.70
2022-08-02T11:54:43.215Z,28.90
2022-08-02T11:57:19.648Z,29.20
2022-08-02T11:59:50.203Z,28.90
2022-08-02T12:02:19.314Z,28.50
2022-08-02T12:04:54.606Z,28.40
2022-08-02T12:07:35.260Z,28.40
2022-08-02T12:10:08.873Z,28.90
2022-08-02T12:12:50.015Z,28.80
2022-08-02T12:15:33.809Z,28.50
2022-08-02T12:18:20.111Z,28.70
2022-08-02T12:20:48.550Z,29.00
2022-08-02T12:23:16.829Z,29.30
2022-08-02T12:25:46.464Z,29.30
2022-08-02T12:28:19.939Z,29.60
2022-08-02T12:30:53.447Z,29.80
2022-08-02T12:33:22.501Z,29.50
2022-08-02T12:35:51.337Z,29.40
2022-08-02T12:38:19.705Z,29.80
2022-08-02T12:40:49.516Z,29.80
2022-08-02T12:43:20.765Z,29.40
2022-08-02T12:45:51.533Z,29.30
2022-08-02T12:48:37.084Z,29.80
2022-08-02T12:51:20.375Z,30.00
2022-08-02T12:53:59.715Z,30.00
2022-08-02T12:56:31.643Z,30.00
2022-08-02T12:59:00.600Z,30.00
2022-08-02T13:01:29.914Z,29.60
2022-08-02T13:04:11.902Z,30.10
2022-08-02T13:06:44.367Z,30.40
2022-08-02T13:09:17.571Z,30.60
2022-08-02T13:11:47.421Z,30.70
2022-08-02T13:14:16.188Z,30.60
2022-08-02T13:16:46.446Z,31.00
2022-08-02T13:19:16.397Z,30.50
2022-08-02T13:22:02.449Z,31.00
2022-08-02T13:24:40.473Z,31.80
2022-08-02T13:27:23.096Z,31.80
2022-08-02T13:29:51.494Z,31.30
2022-08-02T13:32:19.982Z,31.10
2022-08-02T13:34:48.680Z,31.10
2022-08-02T13:37:17.091Z,31.70
2022-08-02T13:40:05.676Z,32.00
2022-08-02T13:42:35.085Z,32.00
2022-08-02T13:45:12.826Z,32.40
2022-08-02T13:48:03.413Z,32.70
2022-08-02T13:50:34.336Z,32.40
2022-08-02T13:53:04.974Z,32.10
2022-08-02T13:55:35.757Z,32.50
2022-08-02T13:58:19.453Z,32.70
2022-08-02T14:00:53.230Z,33.10
2022-08-02T14:03:22.163Z,32.70
2022-08-02T14:05:55.171Z,32.40
2022-08-02T14:08:24.033Z,32.20
2022-08-02T14:10:53.132Z,32.20
2022-08-02T14:13:22.730Z,33.00
2022-08-02T14:15:51.089Z,33.30
2022-08-02T14:18:19.311Z,33.80
2022-08-02T14:20:47.673Z,33.50
2022-08-02T14:23:16.183Z,33.30
2022-08-02T14:25:44.734Z,33.30
2022-08-02T14:28:12.918Z,33.10
2022-08-02T14:30:42.706Z,33.20
2022-08-02T14:33:11.278Z,33.30
2022-08-02T14:35:39.526Z,33.30
2022-08-02T14:38:07.866Z,33.30
2022-08-02T14:40:36.185Z,33.60
2022-08-02T14:43:05.130Z,33.50
2022-08-02T14:45:36.749Z,33.40
2022-08-02T14:48:13.378Z,33.30
2022-08-02T14:50:44.509Z,33.80
2022-08-02T14:53:13.201Z,34.30
2022-08-02T14:55:50.354Z,33.80
2022-08-02T14:58:22.022Z,33.50
2022-08-02T15:00:51.698Z,33.30
2022-08-02T15:03:43.513Z,33.30
2022-08-02T15:06:21.299Z,33.70
2022-08-02T15:08:49.818Z,33.70
2022-08-02T15:11:20.500Z,33.80
2022-08-02T15:13:48.701Z,34.40
2022-08-02T15:16:26.022Z,34.50
2022-08-02T15:19:07.250Z,34.40
2022-08-02T15:21:54.625Z,34.90
2022-08-02T15:24:29.140Z,34.80
2022-08-02T15:27:01.183Z,34.50
2022-08-02T15:29:31.047Z,34.00
2022-08-02T15:31:59.209Z,34.10
2022-08-02T15:34:39.363Z,34.20
2022-08-02T15:37:07.764Z,34.70
2022-08-02T15:39:35.919Z,35.00
2022-08-02T15:42:04.238Z,35.20
2022-08-02T15:44:32.722Z,36.20
2022-08-02T15:47:01.090Z,36.70
2022-08-02T15:49:30.784Z,36.80
2022-08-02T15:51:59.094Z,38.10
2022-08-02T15:54:27.415Z,39.60
2022-08-02T15:56:55.674Z,41.00
2022-08-02T15:59:23.882Z,42.90
2022-08-02T16:01:52.109Z,42.70
2022-08-02T16:04:20.345Z,43.70
2022-08-02T16:06:49.959Z,43.20
2022-08-02T16:09:18.162Z,42.10
2022-08-02T16:11:46.389Z,41.90
2022-08-02T16:14:14.602Z,42.30
2022-08-02T16:16:43.798Z,44.60
2022-08-02T16:19:47.810Z,45.20
2022-08-02T16:22:01.891Z,45.20
2022-08-02T16:24:30.074Z,44.00
2022-08-02T16:26:58.407Z,44.00
2022-08-02T16:29:26.582Z,43.40
2022-08-02T16:32:01.628Z,42.90
2022-08-02T16:34:44.852Z,43.10
2022-08-02T16:37:19.663Z,44.20
2022-08-02T16:39:47.857Z,44.30
2022-08-02T16:42:16.943Z,44.50
2022-08-02T16:44:54.851Z,44.40
2022-08-02T16:47:37.138Z,44.00
2022-08-02T16:50:11.804Z,43.90
2022-08-02T16:52:41.723Z,43.70
2022-08-02T16:55:11.584Z,43.70
2022-08-02T16:57:42.991Z,42.60
2022-08-02T17:00:15.583Z,41.40
2022-08-02T17:02:44.502Z,40.00
2022-08-02T17:05:15.690Z,38.50
2022-08-02T17:08:06.027Z,36.70
2022-08-02T17:10:34.647Z,35.00
2022-08-02T17:13:11.617Z,34.00
2022-08-02T17:16:01.404Z,33.20
2022-08-02T17:18:29.326Z,32.80
2022-08-02T17:20:58.083Z,32.30
2022-08-02T17:24:04.585Z,31.90
2022-08-02T17:26:16.129Z,31.70
2022-08-02T17:29:13.966Z,31.40
2022-08-02T17:31:37.349Z,31.20
2022-08-02T17:34:11.299Z,31.10
2022-08-02T17:36:41.698Z,30.80
2022-08-02T17:39:12.148Z,30.70
2022-08-02T17:44:37.012Z,30.30
2022-08-02T17:47:08.692Z,30.00
2022-08-02T17:49:48.086Z,30.00
2022-08-02T17:52:49.902Z,30.00
2022-08-02T17:55:16.827Z,29.90
2022-08-02T18:00:36.627Z,29.70
2022-08-02T18:03:10.105Z,29.70
2022-08-02T18:05:59.420Z,29.40
2022-08-02T18:08:30.819Z,29.30
2022-08-02T18:11:06.076Z,29.30
2022-08-02T18:13:41.292Z,29.30
2022-08-02T18:16:24.763Z,29.30
2022-08-02T18:18:53.982Z,29.20
2022-08-02T18:21:22.948Z,29.20
2022-08-02T18:23:58.837Z,29.00
2022-08-02T18:26:31.288Z,29.00
2022-08-02T18:29:00.757Z,28.80
2022-08-02T18:31:29.411Z,28.50
2022-08-02T18:34:08.184Z,28.30
2022-08-02T18:36:36.572Z,28.20
2022-08-02T18:39:16.209Z,27.90
2022-08-02T18:41:47.721Z,27.60
2022-08-02T18:44:16.715Z,27.30
2022-08-02T18:46:46.974Z,27.20
2022-08-02T18:49:17.924Z,27.10
2022-08-02T18:51:46.148Z,27.00
2022-08-02T18:54:14.825Z,26.90
2022-08-02T18:56:47.566Z,26.80
2022-08-02T18:59:17.982Z,26.70
2022-08-02T19:01:50.786Z,26.60
2022-08-02T19:04:26.934Z,26.50
2022-08-02T19:07:01.652Z,26.30
2022-08-02T19:09:35.635Z,26.20
2022-08-02T19:12:04.385Z,26.10
2022-08-02T19:14:36.385Z,26.00
2022-08-02T19:17:53.531Z,25.90
2022-08-02T19:19:57.382Z,25.80
2022-08-02T19:22:29.931Z,25.60
2022-08-02T19:25:01.502Z,25.50
2022-08-02T19:27:33.368Z,25.40
2022-08-02T19:30:07.468Z,25.30
2022-08-02T19:32:42.694Z,25.30
2022-08-02T19:35:30.696Z,25.20
2022-08-02T19:38:08.613Z,24.90
2022-08-02T19:40:38.729Z,24.80
2022-08-02T19:44:24.791Z,24.80
2022-08-02T19:45:57.391Z,24.70
2022-08-02T19:48:27.228Z,24.70
2022-08-02T19:51:00.557Z,24.60
2022-08-02T19:53:48.024Z,24.60
2022-08-02T19:56:22.023Z,24.50
2022-08-02T19:58:54.829Z,24.40
2022-08-02T20:01:37.330Z,24.30
2022-08-02T20:04:13.427Z,24.20
2022-08-02T20:06:45.565Z,24.10
2022-08-02T20:09:16.540Z,24.10
2022-08-02T20:11:45.525Z,24.00
2022-08-02T20:14:14.131Z,24.10
2022-08-02T20:16:43.821Z,24.10
2022-08-02T20:19:14.247Z,24.00
2022-08-02T20:21:52.958Z,24.10
2022-08-02T20:24:26.435Z,24.10
2022-08-02T20:26:55.104Z,24.00
2022-08-02T20:29:44.838Z,24.00
2022-08-02T20:32:22.553Z,23.90
2022-08-02T20:34:52.748Z,23.90
2022-08-02T20:37:59.306Z,23.80
2022-08-02T20:40:16.545Z,23.70
2022-08-02T20:42:48.034Z,23.60
2022-08-02T20:45:16.677Z,23.60
2022-08-02T20:47:50.917Z,23.50
2022-08-02T20:50:38.580Z,23.60
2022-08-02T20:53:23.721Z,23.50
2022-08-02T20:55:55.344Z,23.40
2022-08-02T20:58:27.388Z,23.30
2022-08-02T21:00:59.381Z,23.30
2022-08-02T21:03:39.425Z,23.30
2022-08-02T21:06:09.464Z,23.30
2022-08-02T21:08:38.237Z,23.30
2022-08-02T21:11:09.456Z,23.30
2022-08-02T21:13:46.423Z,23.40
2022-08-02T21:16:19.131Z,23.30
2022-08-02T21:18:55.792Z,23.30
2022-08-02T21:21:28.647Z,23.00
2022-08-02T21:23:58.807Z,22.90
2022-08-02T21:26:31.236Z,22.80
2022-08-02T21:29:00.692Z,22.70
2022-08-02T21:31:31.901Z,22.70
2022-08-02T21:34:03.257Z,22.60
2022-08-02T21:36:50.655Z,22.60
2022-08-02T21:39:18.931Z,22.50
2022-08-02T21:41:48.688Z,22.50
2022-08-02T21:44:17.186Z,22.50
2022-08-02T21:46:48.968Z,22.40
2022-08-02T21:49:20.185Z,22.30
2022-08-02T21:51:50.302Z,22.30
2022-08-02T21:54:21.003Z,22.20
2022-08-02T21:56:51.971Z,22.20
2022-08-02T21:59:25.622Z,22.20
2022-08-02T22:01:56.760Z,22.00
2022-08-02T22:04:27.376Z,22.00
2022-08-02T22:06:56.028Z,21.80
2022-08-02T22:09:44.148Z,22.00
2022-08-02T22:12:17.682Z,22.00
2022-08-02T22:17:52.222Z,22.00
2022-08-02T22:20:23.612Z,21.90
2022-08-02T22:22:52.473Z,21.90
2022-08-02T22:25:36.516Z,21.90
2022-08-02T22:28:38.990Z,21.80
2022-08-02T22:30:57.206Z,21.80
2022-08-02T22:33:46.902Z,21.70
2022-08-02T22:36:31.394Z,21.80
2022-08-02T22:38:59.753Z,21.70
2022-08-02T22:42:01.776Z,21.60
2022-08-02T22:44:18.774Z,21.60
2022-08-02T22:46:49.950Z,21.50
2022-08-02T22:49:37.800Z,21.40
2022-08-02T22:52:08.931Z,21.30
2022-08-02T22:54:39.066Z,21.40
2022-08-02T22:57:11.455Z,21.30
2022-08-02T22:58:49.481Z,30.50
2022-08-02T22:59:40.868Z,21.30
2022-08-02T23:02:09.967Z,21.30
2022-08-02T23:04:38.485Z,21.20
2022-08-02T23:07:08.135Z,21.10
2022-08-02T23:09:36.358Z,21.00
2022-08-02T23:12:05.091Z,20.90
2022-08-02T23:14:36.336Z,20.90
2022-08-02T23:17:23.093Z,20.80
2022-08-02T23:20:00.345Z,20.80
2022-08-02T23:22:33.783Z,20.80
2022-08-02T23:25:05.409Z,20.80
2022-08-02T23:27:36.803Z,20.70
2022-08-02T23:30:22.292Z,20.70
2022-08-02T23:32:54.167Z,20.70
2022-08-02T23:35:22.379Z,20.60
2022-08-02T23:38:10.799Z,20.60
2022-08-02T23:40:41.410Z,20.60
2022-08-02T23:43:14.307Z,20.60
2022-08-02T23:45:55.608Z,20.50
2022-08-02T23:48:26.350Z,20.40
2022-08-02T23:50:56.121Z,20.40
2022-08-02T23:53:26.362Z,20.40
2022-08-02T23:55:57.428Z,20.30
2022-08-02T23:58:37.510Z,20.30
